Time;durP1;ratioP1;P1;durP2;ratioP2;P2;SDS_P1;SDS_P2;PMS_P1;PMS_P2;Temp;Humidity;BMP_temperature;BMP_pressure;BME280_temperature;BME280_humidity;BME280_pressure;Samples;Min_cycle;Max_cycle;Signal;HPM_P1;HPM_P2
2023/02/09 16:46:57;;;;;;;35.07;23.10;;;;;;;0.30;78.21;98245.31;5134376;27;20283;-63
2023/02/09 16:49:34;;;;;;;36.03;23.80;;;;;;;0.45;77.50;98247.59;5127978;27;20251;-61
2023/02/09 16:52:10;;;;;;;30.57;22.33;;;;;;;0.52;76.70;98253.84;5135050;27;20231;-63
2023/02/09 16:54:41;;;;;;;33.63;20.50;;;;;;;0.58;75.70;98248.19;5113017;28;20662;-61
2023/02/09 16:57:10;;;;;;;34.80;21.77;;;;;;;0.58;75.61;98250.75;5112536;27;20586;-62
2023/02/09 16:59:35;;;;;;;35.67;23.83;;;;;;;0.62;75.59;98247.78;5122119;28;20267;-63
2023/02/09 17:02:02;;;;;;;33.77;22.93;;;;;;;0.59;75.57;98247.25;5129908;28;20258;-63
2023/02/09 17:04:27;;;;;;;33.10;23.30;;;;;;;0.54;75.47;98247.63;5129257;28;20203;-64
2023/02/09 17:06:53;;;;;;;32.60;23.63;;;;;;;0.53;75.51;98250.31;5114352;28;20249;-64
2023/02/09 17:09:18;;;;;;;34.47;23.93;;;;;;;0.50;76.29;98256.56;5109260;28;20187;-64
2023/02/09 17:11:44;;;;;;;32.63;24.20;;;;;;;0.50;76.37;98259.16;5122127;28;20180;-63
2023/02/09 17:14:11;;;;;;;32.97;23.63;;;;;;;0.45;76.65;98268.22;5127656;28;20516;-65
2023/02/09 17:16:38;;;;;;;30.67;23.03;;;;;;;0.45;75.74;98270.78;5127325;27;20182;-65
2023/02/09 17:19:11;;;;;;;35.07;23.93;;;;;;;0.45;75.89;98273.38;5120660;28;20172;-65
2023/02/09 17:21:39;;;;;;;41.20;23.67;;;;;;;0.33;76.26;98267.47;5112093;28;20583;-65
2023/02/09 17:24:11;;;;;;;30.67;22.77;;;;;;;0.25;77.22;98269.84;5110428;28;20700;-64
2023/02/09 17:26:43;;;;;;;37.67;25.00;;;;;;;0.31;76.49;98270.16;5116990;28;20667;-64
2023/02/09 17:29:09;;;;;;;33.67;23.23;;;;;;;0.25;76.66;98270.66;5129284;27;20258;-63
2023/02/09 17:31:37;;;;;;;35.67;22.43;;;;;;;0.22;77.13;98270.91;5129539;28;20171;-62
2023/02/09 17:34:06;;;;;;;32.93;24.50;;;;;;;0.21;75.52;98271.03;5121081;28;20263;-63
2023/02/09 17:36:32;;;;;;;33.27;22.20;;;;;;;0.18;75.33;98273.84;5129478;28;20179;-64
2023/02/09 17:38:59;;;;;;;30.27;21.23;;;;;;;0.18;74.63;98272.09;5129318;27;20194;-63
2023/02/09 17:41:43;;;;;;;28.27;20.90;;;;;;;0.16;74.25;98273.19;5111495;28;20287;-64
2023/02/09 17:44:21;;;;;;;35.50;20.93;;;;;;;0.11;74.87;98286.44;5121672;27;20191;-64
2023/02/09 17:46:46;;;;;;;26.60;20.30;;;;;;;0.05;74.82;98286.13;5159908;27;20657;-64
2023/02/09 17:49:11;;;;;;;30.47;20.17;;;;;;;0.03;75.01;98287.97;5138229;27;20194;-62
2023/02/09 17:51:40;;;;;;;30.70;20.83;;;;;;;-0.01;75.38;98295.97;5136924;27;20538;-64
2023/02/09 17:54:11;;;;;;;30.77;21.93;;;;;;;0.00;75.56;98305.31;5138619;27;20634;-64
2023/02/09 17:56:37;;;;;;;29.20;21.23;;;;;;;0.07;79.25;98307.41;5166380;27;20175;-64
2023/02/09 17:59:06;;;;;;;31.07;21.23;;;;;;;-0.03;76.94;98302.19;5137671;27;20239;-64
2023/02/09 18:01:37;;;;;;;34.87;25.97;;;;;;;-0.02;76.41;98302.06;5134831;27;20193;-64
2023/02/09 18:04:03;;;;;;;32.13;22.33;;;;;;;0.02;77.19;98294.91;5152586;27;20206;-64
2023/02/09 18:06:33;;;;;;;29.97;21.33;;;;;;;-0.06;77.25;98292.13;5136224;27;20726;-63
2023/02/09 18:09:03;;;;;;;28.47;20.27;;;;;;;-0.12;77.96;98300.34;5136531;27;20171;-63
2023/02/09 18:11:58;;;;;;;29.90;20.40;;;;;;;-0.21;78.35;98294.16;5136217;27;20685;-63
2023/02/09 18:14:25;;;;;;;30.30;21.43;;;;;;;-0.16;78.16;98302.34;5144247;27;20258;-64
2023/02/09 18:16:52;;;;;;;34.17;22.00;;;;;;;-0.12;77.99;98311.47;5156216;27;20174;-63
2023/02/09 18:19:18;;;;;;;30.90;20.53;;;;;;;-0.17;78.72;98308.41;5156413;27;20217;-64
2023/02/09 18:21:51;;;;;;;34.53;22.77;;;;;;;-0.15;78.93;98303.16;5142427;27;20194;-63
2023/02/09 18:24:20;;;;;;;34.87;21.37;;;;;;;-0.17;79.38;98313.56;5135816;27;20515;-63
2023/02/09 18:26:46;;;;;;;38.27;25.63;;;;;;;-0.09;79.37;98307.81;5135586;27;20667;-63
2023/02/09 18:29:12;;;;;;;39.00;24.63;;;;;;;-0.25;80.14;98305.66;5137121;27;20595;-63
2023/02/09 18:31:38;;;;;;;35.60;23.70;;;;;;;-0.29;81.02;98304.25;5141284;27;20170;-63
2023/02/09 18:34:04;;;;;;;37.87;24.90;;;;;;;-0.21;80.71;98311.38;5136591;27;20174;-63
2023/02/09 18:36:31;;;;;;;37.90;24.17;;;;;;;-0.26;81.74;98313.50;5135696;27;20168;-62
2023/02/09 18:38:56;;;;;;;37.83;23.00;;;;;;;-0.29;82.85;98306.84;5136407;27;20187;-63
2023/02/09 18:41:22;;;;;;;40.40;24.90;;;;;;;-0.17;81.77;98321.31;5135203;27;20244;-63
2023/02/09 18:43:48;;;;;;;39.43;24.63;;;;;;;-0.09;81.78;98336.16;5132236;27;20179;-63
2023/02/09 18:46:14;;;;;;;42.73;26.83;;;;;;;-0.17;81.97;98336.75;5133955;27;20229;-63
2023/02/09 18:48:39;;;;;;;37.57;24.17;;;;;;;-0.13;82.15;98333.03;5135367;27;20227;-63
2023/02/09 18:51:09;;;;;;;41.93;26.67;;;;;;;-0.19;82.45;98340.41;5138569;27;20639;-60
2023/02/09 18:53:36;;;;;;;38.73;25.07;;;;;;;-0.15;82.67;98336.66;5136347;27;20171;-65
2023/02/09 18:56:02;;;;;;;39.97;26.90;;;;;;;-0.21;82.82;98335.38;5136036;27;20270;-66
2023/02/09 18:58:28;;;;;;;36.17;26.63;;;;;;;-0.22;83.05;98340.63;5134609;27;20171;-65
2023/02/09 19:00:53;;;;;;;38.70;26.57;;;;;;;-0.20;83.22;98341.34;5135398;27;20163;-65
2023/02/09 19:03:19;;;;;;;39.63;29.07;;;;;;;-0.23;84.59;98344.19;5134832;27;20171;-65
2023/02/09 19:05:45;;;;;;;47.77;31.13;;;;;;;-0.26;84.45;98344.41;5134590;27;20195;-65
2023/02/09 19:08:11;;;;;;;40.90;31.07;;;;;;;-0.27;83.82;98346.16;5123793;27;20175;-65
2023/02/09 19:10:40;;;;;;;41.90;32.00;;;;;;;-0.32;84.56;98350.03;5151384;27;20609;-65
2023/02/09 19:13:06;;;;;;;41.20;31.00;;;;;;;-0.32;84.52;98353.44;5142640;27;20182;-65
2023/02/09 19:15:33;;;;;;;43.80;30.97;;;;;;;-0.35;84.97;98353.69;5154235;27;20190;-65
2023/02/09 19:17:59;;;;;;;43.63;30.73;;;;;;;-0.37;84.67;98352.97;5135095;27;20171;-65
2023/02/09 19:20:27;;;;;;;42.37;29.90;;;;;;;-0.39;84.59;98359.19;5136221;27;20236;-66
2023/02/09 19:22:54;;;;;;;39.20;29.93;;;;;;;-0.42;85.17;98366.22;5154472;27;20177;-67
2023/02/09 19:25:22;;;;;;;37.53;27.97;;;;;;;-0.50;85.25;98365.16;5154259;27;20199;-66
2023/02/09 19:27:48;;;;;;;40.20;28.70;;;;;;;-0.57;85.05;98361.44;5154635;27;20653;-65
2023/02/09 19:30:16;;;;;;;36.37;27.07;;;;;;;-0.68;84.12;98367.41;5154296;27;20166;-66
2023/02/09 19:32:42;;;;;;;36.60;27.20;;;;;;;-0.72;84.21;98376.28;5117451;27;20247;-65
2023/02/09 19:35:08;;;;;;;36.60;27.43;;;;;;;-0.67;83.77;98373.38;5148923;27;20191;-65
2023/02/09 19:37:35;;;;;;;41.83;28.40;;;;;;;-0.65;84.21;98374.88;5154366;27;20179;-65
2023/02/09 19:40:03;;;;;;;36.83;26.30;;;;;;;-0.71;84.67;98377.09;5144228;27;20218;-65
2023/02/09 19:42:30;;;;;;;36.97;27.03;;;;;;;-0.71;84.16;98387.41;5134299;27;20519;-66
2023/02/09 19:44:56;;;;;;;36.50;26.70;;;;;;;-0.75;84.14;98378.28;5146797;27;20338;-66
2023/02/09 19:47:25;;;;;;;36.67;25.60;;;;;;;-0.81;84.49;98373.59;5136776;27;20219;-66
2023/02/09 19:49:56;;;;;;;39.27;26.40;;;;;;;-0.84;84.40;98382.38;5154761;27;20627;-65
2023/02/09 19:52:26;;;;;;;39.83;24.90;;;;;;;-0.80;84.14;98373.47;5144017;27;20183;-66
2023/02/09 19:54:51;;;;;;;38.17;25.70;;;;;;;-0.79;83.54;98372.56;5145172;27;20191;-65
2023/02/09 19:57:18;;;;;;;35.57;24.93;;;;;;;-0.86;83.34;98376.50;5137152;27;20233;-66
2023/02/09 19:59:44;;;;;;;35.57;25.27;;;;;;;-0.89;83.77;98369.84;5149731;27;20316;-63
2023/02/09 20:02:12;;;;;;;34.73;23.87;;;;;;;-1.01;84.44;98370.78;5133375;27;21015;-62
2023/02/09 20:04:38;;;;;;;38.07;25.27;;;;;;;-0.91;84.49;98371.72;5145625;27;20201;-63
2023/02/09 20:07:03;;;;;;;31.67;23.50;;;;;;;-0.81;84.64;98378.75;5132840;27;20171;-64
2023/02/09 20:09:29;;;;;;;34.17;24.43;;;;;;;-0.82;84.03;98377.91;5132987;27;20171;-64
2023/02/09 20:11:54;;;;;;;35.93;23.87;;;;;;;-0.80;83.68;98377.81;5132920;27;20265;-64
2023/02/09 20:14:20;;;;;;;30.80;23.47;;;;;;;-0.80;83.08;98376.06;5143688;27;20281;-64
2023/02/09 20:16:45;;;;;;;32.23;23.57;;;;;;;-0.80;83.95;98381.19;5116110;27;20227;-64
2023/02/09 20:19:11;;;;;;;30.83;22.63;;;;;;;-0.87;83.73;98377.44;5121141;27;20727;-64
2023/02/09 20:21:38;;;;;;;30.17;22.07;;;;;;;-0.83;83.66;98376.28;5140136;27;20163;-64
2023/02/09 20:24:08;;;;;;;33.87;22.93;;;;;;;-0.84;83.34;98379.81;5142481;27;20323;-64
2023/02/09 20:26:35;;;;;;;31.80;22.30;;;;;;;-0.91;83.51;98378.63;5132755;27;20214;-64
2023/02/09 20:29:07;;;;;;;36.10;23.43;;;;;;;-0.87;82.80;98374.88;5145271;27;20171;-64
2023/02/09 20:31:35;;;;;;;32.40;23.13;;;;;;;-0.95;83.41;98374.66;5138808;27;20312;-64
2023/02/09 20:34:05;;;;;;;34.73;23.53;;;;;;;-0.96;83.27;98366.09;5133827;27;20175;-64
2023/02/09 20:36:32;;;;;;;34.10;23.30;;;;;;;-0.94;83.53;98371.13;5147704;27;20258;-64
2023/02/09 20:38:57;;;;;;;38.57;24.47;;;;;;;-0.90;84.05;98367.41;5152907;27;20182;-64
2023/02/09 20:41:23;;;;;;;33.90;23.60;;;;;;;-0.87;83.78;98373.13;5151918;27;20281;-64
2023/02/09 20:47:06;;;;;;;35.67;22.87;;;;;;;-0.94;83.65;98371.94;5134300;27;20302;-64
2023/02/09 20:49:34;;;;;;;32.23;22.10;;;;;;;-1.02;84.44;98379.44;5132026;27;20194;-64
2023/02/09 20:52:00;;;;;;;34.00;23.87;;;;;;;-1.04;85.77;98377.88;5128821;27;20169;-64
2023/02/09 20:54:26;;;;;;;35.53;24.00;;;;;;;-1.05;85.72;98378.81;5134542;27;20688;-65
2023/02/09 20:56:51;;;;;;;36.70;24.00;;;;;;;-1.04;85.33;98380.47;5145063;27;20273;-65
2023/02/09 20:59:17;;;;;;;39.70;23.63;;;;;;;-0.95;84.88;98390.09;5132089;27;20629;-65
2023/02/09 21:01:42;;;;;;;39.63;24.27;;;;;;;-0.99;85.28;98394.63;5132382;27;20175;-65
2023/02/09 21:04:08;;;;;;;34.63;23.77;;;;;;;-1.06;85.89;98398.56;5138873;27;20513;-65
2023/02/09 21:06:36;;;;;;;41.43;25.47;;;;;;;-1.04;86.21;98398.47;5143224;27;20279;-65
2023/02/09 21:09:06;;;;;;;41.73;24.37;;;;;;;-1.07;86.29;98401.28;5131668;28;20254;-65
2023/02/09 21:11:31;;;;;;;37.17;24.73;;;;;;;-1.08;86.59;98399.66;5126071;28;20174;-65
2023/02/09 21:13:56;;;;;;;39.20;23.57;;;;;;;-1.03;85.56;98411.22;5111417;28;20227;-65
2023/02/09 21:16:24;;;;;;;35.03;23.93;;;;;;;-1.04;85.93;98396.72;5111873;27;20175;-65
2023/02/09 21:18:49;;;;;;;37.40;22.53;;;;;;;-1.09;85.56;98403.16;5123138;27;20639;-63
2023/02/09 21:21:16;;;;;;;34.97;22.97;;;;;;;-1.10;85.81;98407.47;5138864;27;20210;-63
2023/02/09 21:23:43;;;;;;;34.80;21.83;;;;;;;-1.07;84.97;98409.81;5142673;27;20188;-65
2023/02/09 21:26:11;;;;;;;34.50;22.57;;;;;;;-1.06;84.45;98406.28;5126053;27;20220;-63
2023/02/09 21:28:37;;;;;;;36.33;23.00;;;;;;;-1.14;84.25;98408.63;5150358;27;20177;-63
2023/02/09 21:31:11;;;;;;;35.37;22.60;;;;;;;-1.15;84.42;98411.31;5141407;27;20594;-63
2023/02/09 21:33:37;;;;;;;34.37;22.57;;;;;;;-1.12;84.46;98409.34;5136672;27;20177;-63
2023/02/09 21:36:04;;;;;;;33.43;22.40;;;;;;;-1.06;84.19;98413.22;5142042;27;20614;-63
2023/02/09 21:38:30;;;;;;;36.43;22.87;;;;;;;-1.08;84.59;98404.78;5138251;27;20175;-63
2023/02/09 21:40:56;;;;;;;33.20;21.17;;;;;;;-1.07;84.62;98407.25;5135386;27;20545;-63
2023/02/09 21:43:22;;;;;;;35.67;23.80;;;;;;;-1.11;84.62;98428.16;5151826;27;20186;-63
2023/02/09 21:45:47;;;;;;;34.80;23.73;;;;;;;-1.17;85.16;98418.34;5122149;27;20263;-63
2023/02/09 21:48:12;;;;;;;35.43;22.60;;;;;;;-1.12;85.43;98434.25;5140879;27;20214;-63
2023/02/09 21:50:38;;;;;;;42.80;24.87;;;;;;;-1.05;85.26;98428.53;5155659;27;21048;-63
2023/02/09 21:53:04;;;;;;;38.30;23.17;;;;;;;-1.03;84.98;98426.66;5149283;27;20187;-63
2023/02/09 21:55:29;;;;;;;40.57;25.33;;;;;;;-1.08;85.80;98433.09;5155515;27;20195;-63
2023/02/09 21:57:56;;;;;;;37.93;23.70;;;;;;;-1.13;86.87;98430.84;5147232;27;20258;-63
2023/02/09 22:00:22;;;;;;;41.23;24.50;;;;;;;-1.12;87.26;98431.69;5137324;27;20167;-64
2023/02/09 22:02:52;;;;;;;40.60;25.33;;;;;;;-1.12;87.17;98429.09;5134820;27;20523;-64
2023/02/09 22:05:17;;;;;;;38.33;23.83;;;;;;;-1.05;87.13;98436.25;5136170;27;20203;-64
2023/02/09 22:07:44;;;;;;;42.93;26.43;;;;;;;-1.00;86.73;98443.63;5135133;27;20177;-64
2023/02/09 22:10:10;;;;;;;39.13;24.00;;;;;;;-0.99;86.84;98448.66;5116214;27;20214;-64
2023/02/09 22:12:37;;;;;;;43.60;25.93;;;;;;;-1.01;86.63;98442.00;5142602;27;20178;-64
2023/02/09 22:15:03;;;;;;;37.43;25.10;;;;;;;-1.03;86.92;98443.84;5144354;27;20223;-64
2023/02/09 22:17:29;;;;;;;39.60;25.70;;;;;;;-1.11;87.45;98449.56;5119702;27;20176;-63
2023/02/09 22:19:54;;;;;;;39.70;25.13;;;;;;;-1.06;87.27;98450.03;5133430;27;20521;-64
2023/02/09 22:22:19;;;;;;;42.10;26.17;;;;;;;-1.02;86.77;98459.19;5155707;27;20249;-64
2023/02/09 22:24:45;;;;;;;38.27;24.60;;;;;;;-1.08;87.29;98459.63;5142161;27;20306;-64
2023/02/09 22:27:10;;;;;;;38.87;26.37;;;;;;;-1.03;86.86;98457.53;5135316;27;20257;-64
2023/02/09 22:29:36;;;;;;;39.10;25.93;;;;;;;-1.03;86.92;98457.53;5151000;27;20277;-64
2023/02/09 22:32:01;;;;;;;38.93;26.00;;;;;;;-1.02;87.49;98454.03;5155972;27;20175;-64
2023/02/09 22:34:27;;;;;;;42.23;27.67;;;;;;;-0.98;86.98;98463.16;5145665;27;20575;-64
2023/02/09 22:36:53;;;;;;;40.90;27.50;;;;;;;-0.99;87.54;98463.28;5134938;27;20171;-65
2023/02/09 22:39:19;;;;;;;38.87;26.30;;;;;;;-0.97;87.42;98464.00;5147402;27;20178;-64
2023/02/09 22:41:47;;;;;;;39.57;26.27;;;;;;;-0.95;87.40;98464.72;5155612;27;20183;-64
2023/02/09 22:44:15;;;;;;;39.00;26.97;;;;;;;-0.99;87.59;98471.00;5147446;27;20179;-64
2023/02/09 22:46:42;;;;;;;43.50;27.30;;;;;;;-0.99;88.35;98471.81;5114652;27;20563;-64
2023/02/09 22:49:13;;;;;;;41.13;28.23;;;;;;;-0.98;87.35;98483.75;5143520;27;20175;-64
2023/02/09 22:51:38;;;;;;;42.10;29.20;;;;;;;-0.92;88.04;98470.44;5134860;27;20217;-64
2023/02/09 22:54:04;;;;;;;44.60;27.30;;;;;;;-0.90;87.32;98466.00;5137508;27;20167;-64
2023/02/09 22:56:30;;;;;;;40.33;28.33;;;;;;;-0.96;87.77;98473.34;5155247;27;20215;-65
2023/02/09 22:58:58;;;;;;;44.30;27.70;;;;;;;-0.98;87.95;98481.19;5133855;27;20174;-64
2023/02/09 23:01:24;;;;;;;46.60;27.80;;;;;;;-1.01;88.50;98481.41;5121000;27;20171;-64
2023/02/09 23:03:49;;;;;;;42.40;29.17;;;;;;;-0.93;87.65;98489.38;5135203;27;20168;-64
2023/02/09 23:06:18;;;;;;;42.10;27.03;;;;;;;-0.91;87.47;98484.94;5136177;27;20754;-65
2023/02/09 23:08:44;;;;;;;46.37;29.23;;;;;;;-0.95;87.97;98483.50;5149022;27;20515;-64
2023/02/09 23:11:14;;;;;;;41.57;27.67;;;;;;;-0.91;87.84;98487.53;5134556;27;20167;-64
2023/02/09 23:13:41;;;;;;;47.33;29.13;;;;;;;-0.89;87.96;98487.38;5135140;27;20199;-64
2023/02/09 23:16:10;;;;;;;45.97;27.20;;;;;;;-0.87;87.62;98488.94;5153530;27;20201;-64
2023/02/09 23:18:36;;;;;;;40.97;26.90;;;;;;;-0.85;87.59;98487.06;5149687;27;20607;-65
2023/02/09 23:21:03;;;;;;;37.40;26.40;;;;;;;-0.81;87.40;98486.84;5142651;27;20162;-64
2023/02/09 23:23:28;;;;;;;40.07;26.63;;;;;;;-0.84;87.23;98487.91;5154972;27;20173;-64
2023/02/09 23:25:54;;;;;;;40.33;27.53;;;;;;;-0.86;87.75;98490.56;5118775;27;20199;-64
2023/02/09 23:28:19;;;;;;;36.70;25.93;;;;;;;-0.87;88.06;98495.81;5118176;27;20267;-64
2023/02/09 23:30:45;;;;;;;40.20;26.00;;;;;;;-0.87;87.54;98499.22;5154936;27;20205;-64
2023/02/09 23:33:10;;;;;;;40.87;26.67;;;;;;;-0.84;87.44;98493.03;5144622;27;20580;-64
2023/02/09 23:35:39;;;;;;;38.10;26.43;;;;;;;-0.89;87.28;98490.78;5139349;27;20705;-64
2023/02/09 23:38:04;;;;;;;44.43;27.20;;;;;;;-0.87;87.71;98493.25;5154204;27;20548;-64
2023/02/09 23:40:30;;;;;;;40.73;26.77;;;;;;;-0.92;87.75;98498.75;5154387;27;20167;-64
2023/02/09 23:42:56;;;;;;;41.73;27.50;;;;;;;-0.98;88.11;98498.38;5146760;27;20179;-64
2023/02/09 23:45:22;;;;;;;40.33;26.77;;;;;;;-1.01;88.53;98506.31;5139675;27;20250;-65
2023/02/09 23:47:47;;;;;;;40.77;27.00;;;;;;;-1.07;88.01;98497.28;5146626;27;20186;-65
2023/02/09 23:50:13;;;;;;;40.23;27.27;;;;;;;-1.03;87.77;98509.00;5153420;27;20258;-64
2023/02/09 23:52:38;;;;;;;43.53;27.50;;;;;;;-1.02;87.87;98507.25;5135641;27;20181;-64
2023/02/09 23:55:04;;;;;;;44.73;28.37;;;;;;;-1.04;88.04;98506.53;5139393;27;20351;-64
2023/02/09 23:57:30;;;;;;;42.97;27.87;;;;;;;-1.03;88.04;98506.44;5133499;27;20183;-64
2023/02/09 23:59:56;;;;;;;39.47;26.77;;;;;;;-1.07;88.26;98505.00;5133812;27;20175;-64
